Chitose — JD2925 — position and weather

sailwx.info

Track history (hours):
 
Tides and Currents Weather Stations Pressure Air Temp Water Temp Dewpoint Dewpoint Depression Visibility Wind Speed Wind Dir Waves Ship Positions

Chitose

Last reported at 2015-Aug-03 04:33 UTC. Time now 2015-Aug-03 04:41 UTC.
Position N 35°31' E 139°46'.

Length 33 m; draft 3.8 m.

Type: Tug. MMSI: 431000953.

Date/timePositionNaut miles runAvg speedWind from/ knotsBaromVisibWave heightAir tempDewpointWater temp
2015-Aug-03 04:33N 35°31' E 139°46'3 3.3
2015-Aug-03 03:33N 35°28' E 139°44'1 0.8
2015-Aug-03 02:33N 35°27' E 139°45'1212.1
2015-Aug-03 01:34N 35°31' E 139°59'3 2.7
2015-Aug-03 00:34N 35°31' E 140°02'2 1.8
2015-Aug-02 23:33N 35°31' E 140°00'1 0.6
2015-Aug-02 22:33N 35°31' E 140°01'1010.0
2015-Aug-02 21:33N 35°30' E 139°49'8 8.0
2015-Aug-02 20:33N 35°27' E 139°40'0 0.0
2015-Aug-01 08:13N 35°27' E 139°40'3 5.0
2015-Aug-01 07:34N 35°24' E 139°40'2 1.5
2015-Aug-01 06:33N 35°25' E 139°42'3 2.8
2015-Aug-01 05:33N 35°27' E 139°40'0 0.0
2015-Aug-01 04:33N 35°27' E 139°40'3 3.2
2015-Aug-01 03:33N 35°24' E 139°38'0 0.0
2015-Aug-01 02:33N 35°24' E 139°38'2 2.4
2015-Aug-01 01:33N 35°23' E 139°41'2 2.2
2015-Aug-01 00:33N 35°24' E 139°38'2 1.8
2015-Jul-31 23:33N 35°24' E 139°40'3 3.4
2015-Jul-31 22:33N 35°27' E 139°40'0 0.0
2015-Jul-30 23:22N 35°27' E 139°40'3 3.2
2015-Jul-30 22:33N 35°26' E 139°43'1 0.8
2015-Jul-30 21:33N 35°25' E 139°42'2 1.6
2015-Jul-30 20:33N 35°24' E 139°41'1 1.2
2015-Jul-30 19:33N 35°23' E 139°41'1 0.8
2015-Jul-30 18:33N 35°24' E 139°41'4 4.1
2015-Jul-30 17:33N 35°28' E 139°41'1 0.8
2015-Jul-30 16:33N 35°28' E 139°40'0 0.0
2015-Jul-30 15:33N 35°28' E 139°40'0 0.0
2015-Jul-30 14:33N 35°28' E 139°40'1 1.3
2015-Jul-30 13:34N 35°26' E 139°41'1 1.3
2015-Jul-30 12:33N 35°27' E 139°43'1 1.5
2015-Jul-30 11:33N 35°27' E 139°41'5 5.3
2015-Jul-30 10:33N 35°29' E 139°47'6 6.4
2015-Jul-30 09:33N 35°27' E 139°39'0 0.0
2015-Jul-30 08:33N 35°27' E 139°39'0 0.0
2015-Jul-30 07:33N 35°27' E 139°39'1 1.4
2015-Jul-30 06:33N 35°26' E 139°41'1 1.4
2015-Jul-30 05:34N 35°27' E 139°39'0 0.1
2015-Jul-30 04:33N 35°27' E 139°39'0 0.0
2015-Jul-30 03:34N 35°27' E 139°39'0 0.0
2015-Jul-30 02:33N 35°27' E 139°39'0 0.0
2015-Jul-30 01:33N 35°27' E 139°39'0 0.0
2015-Jul-30 00:33N 35°27' E 139°39'0 0.0
2015-Jul-29 23:34N 35°27' E 139°39'3 2.6
2015-Jul-29 22:33N 35°26' E 139°42'0 0.4
2015-Jul-29 21:33N 35°26' E 139°43'3 2.6
2015-Jul-29 20:34N 35°27' E 139°40'0 0.0
2015-Jul-29 07:10N 35°27' E 139°40'0 0.8
2015-Jul-29 06:34N 35°27' E 139°40'1 0.7
2015-Jul-29 05:33N 35°27' E 139°41'1 0.5
2015-Jul-29 04:33N 35°28' E 139°40'0 0.1
2015-Jul-29 03:33N 35°28' E 139°40'0 0.0
2015-Jul-29 02:33N 35°28' E 139°40'4 3.7
2015-Jul-29 01:34N 35°24' E 139°42'3 2.7
2015-Jul-29 00:34N 35°24' E 139°38'1 1.1
2015-Jul-28 23:33N 35°24' E 139°40'0 0.0
2015-Jul-28 22:33N 35°24' E 139°40'3 3.3
2015-Jul-28 21:33N 35°26' E 139°42'1 1.1
2015-Jul-28 20:33N 35°27' E 139°40'1 0.7
2015-Jul-28 19:33N 35°27' E 139°40'0 0.0
2015-Jul-28 10:06N 35°27' E 139°40'0 0.0
2015-Jul-28 09:34N 35°27' E 139°40'2 2.0
2015-Jul-28 08:34N 35°26' E 139°42'2 1.9
2015-Jul-28 07:34N 35°27' E 139°40'0 0.4
2015-Jul-28 06:33N 35°27' E 139°40'1 1.2
2015-Jul-28 05:34N 35°27' E 139°41'0 0.5
2015-Jul-28 04:33N 35°28' E 139°40'0 0.0
2015-Jul-28 03:34N 35°28' E 139°40'0 0.0
2015-Jul-28 02:34N 35°28' E 139°40'0 0.0
2015-Jul-28 01:34N 35°28' E 139°40'0 0.0
2015-Jul-28 00:34N 35°28' E 139°40'4 3.6
2015-Jul-27 23:34N 35°28' E 139°45'2 1.8
2015-Jul-27 22:33N 35°29' E 139°43'4 3.8
2015-Jul-27 21:33N 35°27' E 139°40'0 0.0
2015-Jul-27 06:21N 35°27' E 139°40'0 0.0
2015-Jul-27 05:34N 35°27' E 139°40'0 0.0
2015-Jul-27 04:34N 35°27' E 139°40'0 0.0
2015-Jul-27 03:34N 35°27' E 139°40'0 0.0
2015-Jul-27 02:34N 35°27' E 139°40'6 5.6
2015-Jul-27 01:34N 35°30' E 139°45'1 1.0
2015-Jul-27 00:34N 35°31' E 139°46'1 1.0
2015-Jul-26 23:34N 35°30' E 139°47'3 3.5
2015-Jul-26 22:33N 35°29' E 139°43'2 2.0
2015-Jul-26 21:34N 35°27' E 139°43'2 2.5
2015-Jul-26 20:34N 35°27' E 139°40'0 0.0
2015-Jul-26 19:34N 35°27' E 139°40'0 0.0
2015-Jul-26 18:33N 35°27' E 139°40'0 0.0
2015-Jul-26 17:34N 35°27' E 139°40'0 0.0
2015-Jul-26 16:34N 35°27' E 139°40'0 0.0
2015-Jul-26 15:34N 35°27' E 139°40'0 0.0
2015-Jul-26 14:34N 35°27' E 139°40'0 0.0
2015-Jul-26 13:34N 35°27' E 139°40'0 0.0
2015-Jul-26 12:33N 35°27' E 139°40'0 0.0
2015-Jul-26 11:34N 35°27' E 139°40'0 0.0
2015-Jul-26 10:34N 35°27' E 139°40'1 1.5
2015-Jul-26 09:34N 35°27' E 139°41'2 2.1
2015-Jul-26 08:34N 35°28' E 139°44'0 0.4
2015-Jul-26 07:33N 35°28' E 139°43'3 3.1
2015-Jul-26 06:34N 35°27' E 139°40'0 0.0
2015-Jul-26 05:34N 35°27' E 139°40'0 0.0
2015-Jul-26 04:34N 35°27' E 139°40'0 0.0
2015-Jul-26 03:34N 35°27' E 139°40'0 0.0
2015-Jul-26 02:34N 35°27' E 139°40'0 0.0
2015-Jul-26 01:34N 35°27' E 139°40'0 0.0
2015-Jul-26 00:34N 35°27' E 139°40'0 0.0
2015-Jul-25 23:34N 35°27' E 139°40'0 0.0
2015-Jul-25 22:34N 35°27' E 139°40'0 0.0
2015-Jul-25 21:34N 35°27' E 139°40'0 0.0
2015-Jul-25 20:33N 35°27' E 139°40'0 0.0
2015-Jul-25 07:08N 35°27' E 139°40'0 0.0
2015-Jul-25 06:33N 35°27' E 139°40'3 3.0
2015-Jul-25 05:33N 35°28' E 139°43'2 1.7
2015-Jul-25 04:33N 35°29' E 139°44'2 2.5
2015-Jul-25 03:33N 35°27' E 139°42'0 0.0
2015-Jul-25 02:33N 35°27' E 139°42'0 0.0
2015-Jul-25 01:33N 35°27' E 139°42'1 0.7
2015-Jul-25 00:33N 35°26' E 139°42'1 0.6
2015-Jul-24 23:33N 35°26' E 139°42'0 0.0
2015-Jul-24 22:33N 35°26' E 139°42'1 1.2
2015-Jul-24 21:33N 35°27' E 139°41'1 1.2
2015-Jul-24 20:33N 35°27' E 139°40'0 0.0
2015-Jul-24 09:06N 35°27' E 139°40'3 5.1
2015-Jul-24 08:34N 35°27' E 139°43'1 0.8
2015-Jul-24 07:33N 35°28' E 139°42'0 0.0
2015-Jul-24 06:33N 35°28' E 139°42'2 1.7
2015-Jul-24 05:33N 35°27' E 139°40'  
Track history (hours):
 
Tides and Currents Weather Stations Pressure Air Temp Water Temp Dewpoint Dewpoint Depression Visibility Wind Speed Wind Dir Waves Ship Positions

Chitose

Last reported at 2015-Aug-03 04:33 UTC. Time now 2015-Aug-03 04:41 UTC.
Position N 35°31' E 139°46'.

Length 33 m; draft 3.8 m.

Type: Tug. MMSI: 431000953.

Date/timePositionNaut miles runAvg speedWind from/ knotsBaromVisibWave heightAir tempDewpointWater temp
2015-Aug-03 04:33N 35°31' E 139°46'3 3.3
2015-Aug-03 03:33N 35°28' E 139°44'1 0.8
2015-Aug-03 02:33N 35°27' E 139°45'1212.1
2015-Aug-03 01:34N 35°31' E 139°59'3 2.7
2015-Aug-03 00:34N 35°31' E 140°02'2 1.8
2015-Aug-02 23:33N 35°31' E 140°00'1 0.6
2015-Aug-02 22:33N 35°31' E 140°01'1010.0
2015-Aug-02 21:33N 35°30' E 139°49'8 8.0
2015-Aug-02 20:33N 35°27' E 139°40'0 0.0
2015-Aug-01 08:13N 35°27' E 139°40'3 5.0
2015-Aug-01 07:34N 35°24' E 139°40'2 1.5
2015-Aug-01 06:33N 35°25' E 139°42'3 2.8
2015-Aug-01 05:33N 35°27' E 139°40'0 0.0
2015-Aug-01 04:33N 35°27' E 139°40'3 3.2
2015-Aug-01 03:33N 35°24' E 139°38'0 0.0
2015-Aug-01 02:33N 35°24' E 139°38'2 2.4
2015-Aug-01 01:33N 35°23' E 139°41'2 2.2
2015-Aug-01 00:33N 35°24' E 139°38'2 1.8
2015-Jul-31 23:33N 35°24' E 139°40'3 3.4
2015-Jul-31 22:33N 35°27' E 139°40'0 0.0
2015-Jul-30 23:22N 35°27' E 139°40'3 3.2
2015-Jul-30 22:33N 35°26' E 139°43'1 0.8
2015-Jul-30 21:33N 35°25' E 139°42'2 1.6
2015-Jul-30 20:33N 35°24' E 139°41'1 1.2
2015-Jul-30 19:33N 35°23' E 139°41'1 0.8
2015-Jul-30 18:33N 35°24' E 139°41'4 4.1
2015-Jul-30 17:33N 35°28' E 139°41'1 0.8
2015-Jul-30 16:33N 35°28' E 139°40'0 0.0
2015-Jul-30 15:33N 35°28' E 139°40'0 0.0
2015-Jul-30 14:33N 35°28' E 139°40'1 1.3
2015-Jul-30 13:34N 35°26' E 139°41'1 1.3
2015-Jul-30 12:33N 35°27' E 139°43'1 1.5
2015-Jul-30 11:33N 35°27' E 139°41'5 5.3
2015-Jul-30 10:33N 35°29' E 139°47'6 6.4
2015-Jul-30 09:33N 35°27' E 139°39'0 0.0
2015-Jul-30 08:33N 35°27' E 139°39'0 0.0
2015-Jul-30 07:33N 35°27' E 139°39'1 1.4
2015-Jul-30 06:33N 35°26' E 139°41'1 1.4
2015-Jul-30 05:34N 35°27' E 139°39'0 0.1
2015-Jul-30 04:33N 35°27' E 139°39'0 0.0
2015-Jul-30 03:34N 35°27' E 139°39'0 0.0
2015-Jul-30 02:33N 35°27' E 139°39'0 0.0
2015-Jul-30 01:33N 35°27' E 139°39'0 0.0
2015-Jul-30 00:33N 35°27' E 139°39'0 0.0
2015-Jul-29 23:34N 35°27' E 139°39'3 2.6
2015-Jul-29 22:33N 35°26' E 139°42'0 0.4
2015-Jul-29 21:33N 35°26' E 139°43'3 2.6
2015-Jul-29 20:34N 35°27' E 139°40'0 0.0
2015-Jul-29 07:10N 35°27' E 139°40'0 0.8
2015-Jul-29 06:34N 35°27' E 139°40'1 0.7
2015-Jul-29 05:33N 35°27' E 139°41'1 0.5
2015-Jul-29 04:33N 35°28' E 139°40'0 0.1
2015-Jul-29 03:33N 35°28' E 139°40'0 0.0
2015-Jul-29 02:33N 35°28' E 139°40'4 3.7
2015-Jul-29 01:34N 35°24' E 139°42'3 2.7
2015-Jul-29 00:34N 35°24' E 139°38'1 1.1
2015-Jul-28 23:33N 35°24' E 139°40'0 0.0
2015-Jul-28 22:33N 35°24' E 139°40'3 3.3
2015-Jul-28 21:33N 35°26' E 139°42'1 1.1
2015-Jul-28 20:33N 35°27' E 139°40'1 0.7
2015-Jul-28 19:33N 35°27' E 139°40'0 0.0
2015-Jul-28 10:06N 35°27' E 139°40'0 0.0
2015-Jul-28 09:34N 35°27' E 139°40'2 2.0
2015-Jul-28 08:34N 35°26' E 139°42'2 1.9
2015-Jul-28 07:34N 35°27' E 139°40'0 0.4
2015-Jul-28 06:33N 35°27' E 139°40'1 1.2
2015-Jul-28 05:34N 35°27' E 139°41'0 0.5
2015-Jul-28 04:33N 35°28' E 139°40'0 0.0
2015-Jul-28 03:34N 35°28' E 139°40'0 0.0
2015-Jul-28 02:34N 35°28' E 139°40'0 0.0
2015-Jul-28 01:34N 35°28' E 139°40'0 0.0
2015-Jul-28 00:34N 35°28' E 139°40'4 3.6
2015-Jul-27 23:34N 35°28' E 139°45'2 1.8
2015-Jul-27 22:33N 35°29' E 139°43'4 3.8
2015-Jul-27 21:33N 35°27' E 139°40'0 0.0
2015-Jul-27 06:21N 35°27' E 139°40'0 0.0
2015-Jul-27 05:34N 35°27' E 139°40'0 0.0
2015-Jul-27 04:34N 35°27' E 139°40'0 0.0
2015-Jul-27 03:34N 35°27' E 139°40'0 0.0
2015-Jul-27 02:34N 35°27' E 139°40'6 5.6
2015-Jul-27 01:34N 35°30' E 139°45'1 1.0
2015-Jul-27 00:34N 35°31' E 139°46'1 1.0
2015-Jul-26 23:34N 35°30' E 139°47'3 3.5
2015-Jul-26 22:33N 35°29' E 139°43'2 2.0
2015-Jul-26 21:34N 35°27' E 139°43'2 2.5
2015-Jul-26 20:34N 35°27' E 139°40'0 0.0
2015-Jul-26 19:34N 35°27' E 139°40'0 0.0
2015-Jul-26 18:33N 35°27' E 139°40'0 0.0
2015-Jul-26 17:34N 35°27' E 139°40'0 0.0
2015-Jul-26 16:34N 35°27' E 139°40'0 0.0
2015-Jul-26 15:34N 35°27' E 139°40'0 0.0
2015-Jul-26 14:34N 35°27' E 139°40'0 0.0
2015-Jul-26 13:34N 35°27' E 139°40'0 0.0
2015-Jul-26 12:33N 35°27' E 139°40'0 0.0
2015-Jul-26 11:34N 35°27' E 139°40'0 0.0
2015-Jul-26 10:34N 35°27' E 139°40'1 1.5
2015-Jul-26 09:34N 35°27' E 139°41'2 2.1
2015-Jul-26 08:34N 35°28' E 139°44'0 0.4
2015-Jul-26 07:33N 35°28' E 139°43'3 3.1
2015-Jul-26 06:34N 35°27' E 139°40'0 0.0
2015-Jul-26 05:34N 35°27' E 139°40'0 0.0
2015-Jul-26 04:34N 35°27' E 139°40'0 0.0
2015-Jul-26 03:34N 35°27' E 139°40'0 0.0
2015-Jul-26 02:34N 35°27' E 139°40'0 0.0
2015-Jul-26 01:34N 35°27' E 139°40'0 0.0
2015-Jul-26 00:34N 35°27' E 139°40'0 0.0
2015-Jul-25 23:34N 35°27' E 139°40'0 0.0
2015-Jul-25 22:34N 35°27' E 139°40'0 0.0
2015-Jul-25 21:34N 35°27' E 139°40'0 0.0
2015-Jul-25 20:33N 35°27' E 139°40'0 0.0
2015-Jul-25 07:08N 35°27' E 139°40'0 0.0
2015-Jul-25 06:33N 35°27' E 139°40'3 3.0
2015-Jul-25 05:33N 35°28' E 139°43'2 1.7
2015-Jul-25 04:33N 35°29' E 139°44'2 2.5
2015-Jul-25 03:33N 35°27' E 139°42'0 0.0
2015-Jul-25 02:33N 35°27' E 139°42'0 0.0
2015-Jul-25 01:33N 35°27' E 139°42'1 0.7
2015-Jul-25 00:33N 35°26' E 139°42'1 0.6
2015-Jul-24 23:33N 35°26' E 139°42'0 0.0
2015-Jul-24 22:33N 35°26' E 139°42'1 1.2
2015-Jul-24 21:33N 35°27' E 139°41'1 1.2
2015-Jul-24 20:33N 35°27' E 139°40'0 0.0
2015-Jul-24 09:06N 35°27' E 139°40'3 5.1
2015-Jul-24 08:34N 35°27' E 139°43'1 0.8
2015-Jul-24 07:33N 35°28' E 139°42'0 0.0
2015-Jul-24 06:33N 35°28' E 139°42'2 1.7
2015-Jul-24 05:33N 35°27' E 139°40'  

Dump ship's entire track history